Time;durP1;ratioP1;P1;durP2;ratioP2;P2;SDS_P1;SDS_P2;PMS_P1;PMS_P2;Temp;Humidity;BMP_temperature;BMP_pressure;BME280_temperature;BME280_humidity;BME280_pressure;Samples;Min_cycle;Max_cycle;Signal;HPM_P1;HPM_P2
2021/11/26 00:01:42;;;;;;;1999.90;999.90;;;;;;;6.05;96.50;164009.16;5004123;28;20140;-65
2021/11/26 00:04:10;;;;;;;1999.90;999.90;;;;;;;6.21;95.97;164051.69;4998069;28;20046;-66
2021/11/26 00:06:36;;;;;;;1999.90;999.90;;;;;;;6.25;95.45;164064.09;5000528;28;20467;-65
2021/11/26 00:09:03;;;;;;;1999.90;999.90;;;;;;;6.64;93.97;164168.47;5000526;28;20109;-65
2021/11/26 00:11:30;;;;;;;1999.90;999.90;;;;;;;6.78;93.17;164204.19;4997886;28;20046;-65
2021/11/26 00:14:13;;;;;;;1999.90;999.90;;;;;;;6.29;95.04;164075.03;5004090;28;20053;-65
2021/11/26 00:16:41;;;;;;;1999.90;999.90;;;;;;;6.10;95.96;164022.88;4999752;28;20113;-66
2021/11/26 00:19:08;;;;;;;1999.90;999.90;;;;;;;5.86;96.63;163959.66;4997897;28;20092;-66
2021/11/26 00:21:38;;;;;;;1999.90;999.90;;;;;;;6.12;95.85;164029.75;5006280;28;20042;-66
2021/11/26 00:24:06;;;;;;;1999.90;999.90;;;;;;;6.29;95.29;164075.03;5002624;28;20437;-66
2021/11/26 00:26:34;;;;;;;1999.90;999.90;;;;;;;6.22;96.09;164055.81;5005849;28;20103;-66
2021/11/26 00:29:01;;;;;;;1999.90;999.90;;;;;;;6.14;95.43;164035.22;4997405;28;20112;-66
2021/11/26 00:31:28;;;;;;;1999.90;999.90;;;;;;;5.98;96.54;163991.28;5000001;28;20080;-66
2021/11/26 00:33:54;;;;;;;1999.90;999.90;;;;;;;5.93;96.58;163977.53;4996093;28;20489;-66
2021/11/26 00:36:21;;;;;;;1999.90;999.90;;;;;;;6.15;95.79;164038.00;4997912;28;20323;-67
2021/11/26 00:38:47;;;;;;;1999.90;999.90;;;;;;;5.76;97.19;163932.19;5004869;28;20333;-67
2021/11/26 00:41:14;;;;;;;1999.90;999.90;;;;;;;5.67;97.08;163907.50;5006710;28;20448;-67
2021/11/26 00:43:41;;;;;;;1999.90;999.90;;;;;;;5.31;99.22;163811.44;4996456;28;20229;-66
2021/11/26 00:46:07;;;;;;;1999.90;999.90;;;;;;;5.56;98.58;163880.03;4996739;28;20138;-66
2021/11/26 00:48:34;;;;;;;1999.90;999.90;;;;;;;6.13;96.12;164032.50;5001386;28;20237;-66
2021/11/26 00:51:01;;;;;;;1999.90;999.90;;;;;;;5.62;97.41;163895.16;5003249;28;20051;-66
2021/11/26 00:53:27;;;;;;;1999.90;999.90;;;;;;;5.69;97.38;163914.38;5002460;28;20113;-66
2021/11/26 00:55:54;;;;;;;1999.90;999.90;;;;;;;5.51;98.32;163866.34;5003173;28;20285;-66
2021/11/26 00:58:20;;;;;;;1999.90;999.90;;;;;;;5.80;96.95;163943.19;4997315;28;20068;-66
2021/11/26 01:00:47;;;;;;;1999.90;999.90;;;;;;;5.72;96.39;163921.25;5005821;28;20566;-66
2021/11/26 01:03:14;;;;;;;1999.90;999.90;;;;;;;5.50;97.33;163863.56;4995573;28;20057;-67
2021/11/26 01:05:40;;;;;;;1999.90;999.90;;;;;;;6.14;95.45;164033.88;5001142;28;20057;-66
2021/11/26 01:08:07;;;;;;;1999.90;999.90;;;;;;;5.68;96.82;163910.25;4996107;28;20322;-66
2021/11/26 01:10:34;;;;;;;1999.90;999.90;;;;;;;6.10;95.10;164022.88;5004912;28;20314;-66
2021/11/26 01:13:02;;;;;;;1999.90;999.90;;;;;;;5.89;96.11;163966.53;4998167;28;20053;-67
2021/11/26 01:15:30;;;;;;;1999.90;999.90;;;;;;;5.96;95.47;163987.13;5007872;28;20073;-66
2021/11/26 01:17:58;;;;;;;1999.90;999.90;;;;;;;5.74;96.56;163926.72;4997809;28;20057;-67
2021/11/26 01:20:27;;;;;;;1999.90;999.90;;;;;;;6.04;95.88;164007.75;4999576;28;20049;-66
2021/11/26 01:22:54;;;;;;;1999.90;999.90;;;;;;;5.52;97.46;163869.06;5002055;28;20146;-66
2021/11/26 01:25:21;;;;;;;1999.90;999.90;;;;;;;5.65;97.17;163903.38;5003229;28;20045;-67
2021/11/26 01:27:48;;;;;;;1999.90;999.90;;;;;;;6.03;96.06;164003.66;4992865;28;20050;-66
2021/11/26 01:30:27;;;;;;;1999.90;999.90;;;;;;;6.30;94.75;164077.81;5001051;28;20065;-66
2021/11/26 01:32:55;;;;;;;1999.90;999.90;;;;;;;5.52;97.05;163869.06;5001326;28;20053;-67
2021/11/26 01:35:22;;;;;;;1999.90;999.90;;;;;;;5.85;96.91;163956.94;4998542;28;20490;-66
2021/11/26 01:37:48;;;;;;;1999.90;999.90;;;;;;;6.20;95.44;164050.34;5003756;28;20074;-66
2021/11/26 01:40:17;;;;;;;1999.90;999.90;;;;;;;6.32;94.68;164083.28;4995915;28;20053;-66
2021/11/26 01:42:45;;;;;;;1999.90;999.90;;;;;;;6.16;94.56;164040.75;5002729;28;20116;-66
2021/11/26 01:45:14;;;;;;;1999.90;999.90;;;;;;;5.96;96.21;163985.75;5000280;28;20042;-66
2021/11/26 01:47:41;;;;;;;1999.90;999.90;;;;;;;6.38;94.35;164098.41;5003759;28;20077;-67
2021/11/26 01:50:09;;;;;;;1999.90;999.90;;;;;;;6.19;95.19;164047.59;4995247;28;20455;-66
2021/11/26 01:52:36;;;;;;;1999.90;999.90;;;;;;;6.62;93.07;164162.94;4998442;28;20085;-66
2021/11/26 01:55:04;;;;;;;1999.90;999.90;;;;;;;6.95;91.49;164250.91;5001792;28;20136;-66
2021/11/26 01:57:31;;;;;;;1999.90;999.90;;;;;;;6.39;93.18;164101.16;5005550;28;20042;-67
2021/11/26 01:59:58;;;;;;;1999.90;999.90;;;;;;;6.09;94.75;164020.09;5000516;28;20077;-66
2021/11/26 02:02:24;;;;;;;1999.90;999.90;;;;;;;6.17;94.16;164042.09;4997099;28;20047;-66
2021/11/26 02:04:51;;;;;;;1999.90;999.90;;;;;;;5.79;95.93;163940.44;4999322;28;20395;-67
2021/11/26 02:07:18;;;;;;;1999.90;999.90;;;;;;;5.55;97.48;163877.34;5003921;28;20092;-67
2021/11/26 02:09:44;;;;;;;1999.90;999.90;;;;;;;5.81;96.59;163945.94;5003572;28;20428;-66
2021/11/26 02:12:11;;;;;;;1999.90;999.90;;;;;;;5.94;95.93;163981.66;5001618;28;20097;-66
2021/11/26 02:14:38;;;;;;;1999.90;999.90;;;;;;;6.17;94.94;164042.09;4995547;28;20058;-66
2021/11/26 02:17:04;;;;;;;1999.90;999.90;;;;;;;5.87;96.35;163962.41;4999215;28;20057;-64
2021/11/26 02:19:31;;;;;;;1999.90;999.90;;;;;;;6.17;95.18;164043.47;4998312;28;20077;-64
2021/11/26 02:21:58;;;;;;;1999.90;999.90;;;;;;;6.15;94.76;164038.00;5001339;28;20461;-65
2021/11/26 02:24:24;;;;;;;1999.90;999.90;;;;;;;6.45;93.46;164116.28;4998882;28;20047;-65
2021/11/26 02:26:51;;;;;;;1999.90;999.90;;;;;;;6.01;94.30;163998.16;4999825;28;20132;-65
2021/11/26 02:29:19;;;;;;;1999.90;999.90;;;;;;;6.06;94.75;164011.88;5006447;28;20343;-65
2021/11/26 02:31:46;;;;;;;1999.90;999.90;;;;;;;6.08;94.68;164017.41;4998198;28;20069;-65
2021/11/26 02:34:13;;;;;;;1999.90;999.90;;;;;;;5.80;95.65;163943.19;5000348;28;20046;-65
2021/11/26 02:36:39;;;;;;;1999.90;999.90;;;;;;;5.80;96.04;163944.53;5002406;28;20455;-65
2021/11/26 02:39:10;;;;;;;1999.90;999.90;;;;;;;5.85;95.90;163956.94;4999379;28;20053;-65
2021/11/26 02:41:39;;;;;;;1999.90;999.90;;;;;;;5.92;95.57;163976.13;5005763;28;20050;-65
2021/11/26 02:44:07;;;;;;;1999.90;999.90;;;;;;;6.43;93.91;164110.75;5008811;28;20050;-65
2021/11/26 02:46:35;;;;;;;1999.90;999.90;;;;;;;6.45;93.16;164117.63;5000038;28;20398;-65
2021/11/26 02:49:03;;;;;;;1999.90;999.90;;;;;;;6.44;92.35;164113.50;5000918;28;20082;-65
2021/11/26 02:51:30;;;;;;;1999.90;999.90;;;;;;;5.59;96.28;163888.28;5003220;28;20073;-65
2021/11/26 02:53:57;;;;;;;1999.90;999.90;;;;;;;5.49;97.23;163860.81;5002470;28;20066;-65
2021/11/26 02:56:24;;;;;;;1999.90;999.90;;;;;;;5.48;97.18;163858.09;5007353;28;20140;-65
2021/11/26 02:58:50;;;;;;;1999.90;999.90;;;;;;;5.74;96.36;163926.72;4999645;28;20085;-65
2021/11/26 03:01:17;;;;;;;1999.90;999.90;;;;;;;5.90;95.59;163970.66;5000060;28;20046;-65
2021/11/26 03:03:44;;;;;;;1999.90;999.90;;;;;;;5.78;95.57;163939.06;5003743;28;20287;-65
2021/11/26 03:06:10;;;;;;;1999.90;999.90;;;;;;;5.72;96.03;163921.25;5006511;28;20097;-65
2021/11/26 03:08:37;;;;;;;1999.90;999.90;;;;;;;6.31;94.00;164080.56;5002238;28;20077;-65
2021/11/26 03:11:04;;;;;;;1999.90;999.90;;;;;;;6.16;93.98;164040.75;5000057;28;20099;-65
2021/11/26 03:13:32;;;;;;;1999.90;999.90;;;;;;;5.79;95.19;163940.44;5001684;28;20325;-65
2021/11/26 03:15:58;;;;;;;1999.90;999.90;;;;;;;5.54;96.72;163874.56;4999049;28;20045;-65
2021/11/26 03:18:27;;;;;;;1999.90;999.90;;;;;;;5.79;96.02;163941.84;5008629;28;20049;-65
2021/11/26 03:20:55;;;;;;;1999.90;999.90;;;;;;;6.04;94.57;164007.75;5001928;28;20096;-65
2021/11/26 03:23:23;;;;;;;1999.90;999.90;;;;;;;5.96;95.03;163987.13;5002030;28;20046;-65
2021/11/26 03:25:50;;;;;;;1999.90;999.90;;;;;;;5.86;94.90;163959.66;4997884;28;20057;-65
2021/11/26 03:28:16;;;;;;;1999.90;999.90;;;;;;;6.38;93.62;164097.03;5001342;28;20118;-65
2021/11/26 03:30:44;;;;;;;1999.90;999.90;;;;;;;6.19;93.09;164047.59;5007224;28;20054;-65
2021/11/26 03:33:10;;;;;;;1999.90;999.90;;;;;;;6.04;94.42;164006.41;5000313;28;20058;-65
2021/11/26 03:35:37;;;;;;;1999.90;999.90;;;;;;;6.08;93.56;164017.41;5002473;28;20100;-65
2021/11/26 03:38:04;;;;;;;1999.90;999.90;;;;;;;5.81;95.08;163945.94;5005977;28;20220;-65
2021/11/26 03:40:30;;;;;;;1999.90;999.90;;;;;;;5.65;95.98;163904.75;4994981;28;20050;-65
2021/11/26 03:42:57;;;;;;;1999.90;999.90;;;;;;;5.85;95.34;163956.94;4996629;28;20108;-65
2021/11/26 03:45:27;;;;;;;1999.90;999.90;;;;;;;5.73;94.98;163925.38;4998995;28;20046;-65
2021/11/26 03:47:55;;;;;;;1999.90;999.90;;;;;;;6.14;93.58;164033.88;5002736;28;20088;-65
2021/11/26 03:50:23;;;;;;;1999.90;999.90;;;;;;;6.09;93.68;164020.09;5003767;28;20077;-65
2021/11/26 03:52:51;;;;;;;1999.90;999.90;;;;;;;6.01;93.90;163999.53;5008346;28;20057;-65
2021/11/26 03:55:22;;;;;;;1999.90;999.90;;;;;;;6.20;93.76;164049.00;5006502;28;20054;-65
2021/11/26 03:57:50;;;;;;;1999.90;999.90;;;;;;;6.43;92.95;164110.75;5003532;28;20700;-65
2021/11/26 04:00:17;;;;;;;1999.90;999.90;;;;;;;6.28;92.89;164072.34;5002606;28;20370;-65
2021/11/26 04:02:45;;;;;;;1999.90;999.90;;;;;;;6.41;91.86;164106.63;5003917;28;20096;-65
2021/11/26 04:05:12;;;;;;;1999.90;999.90;;;;;;;6.09;93.24;164020.09;5007395;28;20225;-65
2021/11/26 04:07:39;;;;;;;1999.90;999.90;;;;;;;6.28;92.84;164070.94;4997555;28;20082;-65
2021/11/26 04:10:07;;;;;;;1999.90;999.90;;;;;;;6.34;91.90;164088.81;5002310;28;20104;-65
2021/11/26 04:12:34;;;;;;;1999.90;999.90;;;;;;;6.05;92.50;164010.53;4997999;28;20053;-65
2021/11/26 04:15:06;;;;;;;1999.90;999.90;;;;;;;6.06;93.13;164011.88;5007142;28;20050;-65
2021/11/26 04:17:34;;;;;;;1999.90;999.90;;;;;;;5.77;93.37;163934.97;4999298;28;20038;-65
2021/11/26 04:20:01;;;;;;;1999.90;999.90;;;;;;;5.40;93.16;163837.47;5000006;28;20116;-65
2021/11/26 04:22:28;;;;;;;1999.90;999.90;;;;;;;5.14;94.59;163767.53;5002011;28;20103;-65
2021/11/26 04:24:54;;;;;;;1999.90;999.90;;;;;;;5.32;94.17;163814.19;5002156;28;20181;-65
2021/11/26 04:27:21;;;;;;;1999.90;999.90;;;;;;;5.65;92.97;163903.38;5001941;28;20046;-65
2021/11/26 04:29:48;;;;;;;1999.90;999.90;;;;;;;5.45;93.66;163849.88;5007058;28;20244;-65
2021/11/26 04:32:15;;;;;;;1999.90;999.90;;;;;;;5.97;91.64;163988.59;5005261;28;20046;-65
2021/11/26 04:34:43;;;;;;;1999.90;999.90;;;;;;;5.95;91.34;163983.00;5002499;28;20418;-65
2021/11/26 04:37:09;;;;;;;1999.90;999.90;;;;;;;5.27;93.92;163803.19;4998962;28;20486;-65
2021/11/26 04:39:37;;;;;;;1999.90;999.90;;;;;;;4.84;95.94;163687.94;5004001;28;20396;-65
2021/11/26 04:42:04;;;;;;;1999.90;999.90;;;;;;;4.76;95.11;163665.97;4996097;28;20343;-65
2021/11/26 04:44:30;;;;;;;1999.90;999.90;;;;;;;4.68;95.46;163644.06;5004816;28;20056;-65
2021/11/26 04:46:57;;;;;;;1999.90;999.90;;;;;;;5.33;92.65;163818.31;5002617;28;20088;-65
2021/11/26 04:49:23;;;;;;;1999.90;999.90;;;;;;;5.40;91.95;163836.13;5006354;28;20390;-65
2021/11/26 04:51:50;;;;;;;1999.90;999.90;;;;;;;4.79;93.90;163672.84;5003721;28;20129;-65
2021/11/26 04:54:16;;;;;;;1999.90;999.90;;;;;;;5.19;92.62;163779.88;4999611;28;20089;-65
2021/11/26 04:56:43;;;;;;;1999.90;999.90;;;;;;;4.96;93.10;163718.09;5002965;28;20072;-65
2021/11/26 04:59:09;;;;;;;1999.90;999.90;;;;;;;4.73;93.82;163657.75;5000966;28;20037;-65
2021/11/26 05:01:36;;;;;;;1999.90;999.90;;;;;;;5.09;92.28;163753.78;4994143;28;20050;-64
2021/11/26 05:04:03;;;;;;;1999.90;999.90;;;;;;;5.71;89.78;163918.50;4998240;28;20170;-64
2021/11/26 05:06:33;;;;;;;1999.90;999.90;;;;;;;5.53;90.26;163871.81;5002246;28;20084;-64
2021/11/26 05:09:00;;;;;;;1999.90;999.90;;;;;;;5.80;88.46;163943.19;5002705;28;20050;-65
2021/11/26 05:11:27;;;;;;;1999.90;999.90;;;;;;;5.34;90.08;163821.03;5004205;28;20104;-65
2021/11/26 05:13:55;;;;;;;1999.90;999.90;;;;;;;5.73;89.17;163923.97;5006479;28;20046;-65
2021/11/26 05:16:22;;;;;;;1999.90;999.90;;;;;;;5.69;89.70;163913.03;4997041;28;20050;-65
2021/11/26 05:18:48;;;;;;;1999.90;999.90;;;;;;;5.82;88.61;163948.66;5002699;28;20140;-65
2021/11/26 05:21:15;;;;;;;1999.90;999.90;;;;;;;6.01;88.19;163998.16;5002944;28;20267;-65
2021/11/26 05:23:42;;;;;;;1999.90;999.90;;;;;;;5.90;88.17;163970.66;5004843;28;20046;-65
2021/11/26 05:26:08;;;;;;;1999.90;999.90;;;;;;;5.88;87.55;163963.78;5002896;28;20501;-65
2021/11/26 05:28:35;;;;;;;1999.90;999.90;;;;;;;5.55;89.76;163877.34;5001774;28;20089;-66
2021/11/26 05:31:02;;;;;;;1999.90;999.90;;;;;;;5.30;90.04;163810.06;5007224;28;20104;-66
2021/11/26 05:33:29;;;;;;;1999.90;999.90;;;;;;;5.18;90.02;163778.50;4997899;28;20519;-66
2021/11/26 05:35:55;;;;;;;1999.90;999.90;;;;;;;5.14;90.43;163767.53;5004008;28;20338;-66
2021/11/26 05:38:22;;;;;;;1999.90;999.90;;;;;;;4.45;92.88;163583.72;5002964;28;20046;-66
2021/11/26 05:40:49;;;;;;;1999.90;999.90;;;;;;;4.69;91.97;163648.16;5002486;28;20104;-66
2021/11/26 05:43:17;;;;;;;1999.90;999.90;;;;;;;4.47;93.23;163587.81;5002443;28;20108;-66
2021/11/26 05:45:44;;;;;;;1999.90;999.90;;;;;;;3.92;94.46;163442.44;4997729;28;20444;-66
2021/11/26 05:48:11;;;;;;;1999.90;999.90;;;;;;;4.21;94.47;163520.63;4992991;28;20045;-66
2021/11/26 05:50:37;;;;;;;1999.90;999.90;;;;;;;4.13;94.27;163498.66;5003209;28;20115;-66
2021/11/26 05:53:05;;;;;;;1999.90;999.90;;;;;;;4.22;93.38;163521.97;5000208;28;20108;-66
2021/11/26 05:55:32;;;;;;;1999.90;999.90;;;;;;;4.26;93.35;163532.94;5003751;28;20096;-66
2021/11/26 05:58:00;;;;;;;1999.90;999.90;;;;;;;4.08;93.92;163484.97;4997894;28;20101;-66
2021/11/26 06:00:29;;;;;;;1999.90;999.90;;;;;;;3.62;96.10;163362.94;4991218;28;20498;-66
2021/11/26 06:02:56;;;;;;;1999.90;999.90;;;;;;;3.78;95.60;163405.44;4995155;28;20057;-66
2021/11/26 06:05:23;;;;;;;1999.90;999.90;;;;;;;4.20;93.92;163517.84;4999388;28;20058;-66
2021/11/26 06:07:52;;;;;;;1999.90;999.90;;;;;;;3.63;95.30;163364.28;5007203;28;20427;-66
2021/11/26 06:10:19;;;;;;;1999.90;999.90;;;;;;;3.35;97.44;163290.31;4995976;28;20046;-66
2021/11/26 06:12:48;;;;;;;1999.90;999.90;;;;;;;3.52;96.02;163336.88;5001843;28;20049;-66
2021/11/26 06:15:17;;;;;;;1999.90;999.90;;;;;;;3.53;96.64;163338.28;4999369;28;20046;-66
2021/11/26 06:17:44;;;;;;;1999.90;999.90;;;;;;;3.63;95.83;163365.69;4997798;28;20043;-66
2021/11/26 06:20:12;;;;;;;1999.90;999.90;;;;;;;4.60;91.68;163623.47;5004367;28;20483;-66
2021/11/26 06:22:40;;;;;;;1999.90;999.90;;;;;;;3.87;94.30;163430.13;5007607;28;20077;-66
2021/11/26 06:25:08;;;;;;;1999.90;999.90;;;;;;;3.92;94.23;163441.09;4998205;28;20101;-66
2021/11/26 06:27:35;;;;;;;1999.90;999.90;;;;;;;4.70;90.90;163650.88;5004129;28;20077;-66
2021/11/26 06:30:04;;;;;;;1999.90;999.90;;;;;;;4.93;89.54;163712.63;5010553;28;20051;-65
2021/11/26 06:32:30;;;;;;;1999.90;999.90;;;;;;;4.91;89.68;163707.16;5007577;28;20096;-65
2021/11/26 06:34:57;;;;;;;1999.90;999.90;;;;;;;5.22;88.74;163789.44;5009616;28;20041;-65
2021/11/26 06:37:24;;;;;;;1999.90;999.90;;;;;;;4.18;91.72;163512.41;5004615;28;20096;-65
2021/11/26 06:39:50;;;;;;;1999.90;999.90;;;;;;;4.81;90.34;163679.72;5000918;28;20042;-65
2021/11/26 06:42:17;;;;;;;1999.90;999.90;;;;;;;5.01;89.06;163731.84;5003311;28;20096;-65
2021/11/26 06:44:43;;;;;;;1999.90;999.90;;;;;;;4.76;89.56;163665.97;5005421;28;20045;-65
2021/11/26 06:47:10;;;;;;;1999.90;999.90;;;;;;;4.42;91.60;163575.44;5001640;28;20119;-65
2021/11/26 06:49:37;;;;;;;1999.90;999.90;;;;;;;4.31;91.54;163545.28;4999588;28;20074;-65
2021/11/26 06:52:04;;;;;;;1999.90;999.90;;;;;;;4.28;92.18;163538.41;5006275;28;20423;-66
2021/11/26 06:54:31;;;;;;;1999.90;999.90;;;;;;;4.36;91.74;163558.97;5005856;28;20041;-65
2021/11/26 06:56:57;;;;;;;1999.90;999.90;;;;;;;4.49;91.13;163594.66;5002893;28;20049;-65
2021/11/26 06:59:25;;;;;;;1999.90;999.90;;;;;;;4.67;90.25;163641.28;5004900;28;20077;-65
2021/11/26 07:01:52;;;;;;;1999.90;999.90;;;;;;;4.81;89.80;163678.31;5001547;28;20058;-65
2021/11/26 07:04:19;;;;;;;1999.90;999.90;;;;;;;5.20;88.29;163783.97;5002984;28;20050;-66
2021/11/26 07:06:45;;;;;;;1999.90;999.90;;;;;;;4.16;91.29;163505.53;5000841;28;20046;-66
2021/11/26 07:09:12;;;;;;;1999.90;999.90;;;;;;;4.36;91.08;163558.97;4995268;28;20042;-66
2021/11/26 07:11:38;;;;;;;1999.90;999.90;;;;;;;4.62;90.32;163627.59;5000039;28;20049;-65
2021/11/26 07:14:05;;;;;;;1999.90;999.90;;;;;;;5.02;89.07;163734.59;4998804;28;20395;-65
2021/11/26 07:16:31;;;;;;;1999.90;999.90;;;;;;;5.36;87.58;163825.13;5005310;28;20058;-65
2021/11/26 07:18:59;;;;;;;1999.90;999.90;;;;;;;5.60;86.56;163891.03;5006576;28;20502;-66
2021/11/26 07:21:25;;;;;;;1999.90;999.90;;;;;;;4.87;88.27;163694.81;5004516;28;20502;-66
2021/11/26 07:23:54;;;;;;;1999.90;999.90;;;;;;;5.33;87.13;163816.91;4998908;28;20371;-65
2021/11/26 07:26:22;;;;;;;1999.90;999.90;;;;;;;5.65;86.44;163904.75;5002728;28;20046;-66
2021/11/26 07:28:49;;;;;;;1999.90;999.90;;;;;;;5.47;86.88;163855.34;5001845;28;20073;-65
2021/11/26 07:31:16;;;;;;;1999.90;999.90;;;;;;;5.48;87.45;163858.09;5005989;28;20119;-66
2021/11/26 07:33:42;;;;;;;1999.90;999.90;;;;;;;5.57;87.16;163882.81;4997510;28;20392;-66
2021/11/26 07:36:09;;;;;;;1999.90;999.90;;;;;;;5.62;87.07;163896.50;5000647;28;20100;-65
2021/11/26 07:38:36;;;;;;;1999.90;999.90;;;;;;;5.87;86.88;163962.41;5009500;28;20243;-66
2021/11/26 07:41:03;;;;;;;1999.90;999.90;;;;;;;5.85;86.94;163956.94;5004001;28;20049;-66
2021/11/26 07:43:30;;;;;;;1999.90;999.90;;;;;;;5.78;87.40;163937.72;5004314;28;20139;-66
2021/11/26 07:45:57;;;;;;;1999.90;999.90;;;;;;;5.60;88.33;163891.03;5006576;28;20057;-66
2021/11/26 07:48:24;;;;;;;1999.90;999.90;;;;;;;5.35;89.35;163823.78;5000014;28;20683;-66
2021/11/26 07:50:51;;;;;;;1999.90;999.90;;;;;;;5.21;90.18;163786.75;5009142;28;20081;-66
2021/11/26 07:53:18;;;;;;;1999.90;999.90;;;;;;;5.45;90.25;163849.88;5003031;28;20062;-67
2021/11/26 07:55:44;;;;;;;1999.90;999.90;;;;;;;5.52;90.56;163869.06;5002333;28;20105;-66
2021/11/26 07:58:12;;;;;;;1999.90;999.90;;;;;;;5.40;91.50;163836.13;5001890;28;20053;-66
2021/11/26 08:00:39;;;;;;;1999.90;999.90;;;;;;;5.17;92.10;163774.41;4997784;28;20050;-66
2021/11/26 08:03:08;;;;;;;1999.90;999.90;;;;;;;5.37;92.71;163829.25;5000183;28;20046;-66
2021/11/26 08:05:56;;;;;;;1999.90;999.90;;;;;;;5.74;91.89;163928.09;5008931;28;20324;-66
2021/11/26 08:08:23;;;;;;;1999.90;999.90;;;;;;;4.43;96.21;163578.19;5000421;28;20046;-67
2021/11/26 08:10:49;;;;;;;1999.90;999.90;;;;;;;4.31;97.95;163545.28;4996259;28;20112;-67
2021/11/26 08:13:16;;;;;;;1999.90;999.90;;;;;;;3.92;99.87;163441.09;4994940;28;20088;-66
2021/11/26 08:15:43;;;;;;;1999.90;999.90;;;;;;;4.17;99.77;163509.63;5000683;28;20081;-66
2021/11/26 08:18:09;;;;;;;1999.90;999.90;;;;;;;4.78;97.43;163670.09;5005073;28;20127;-66
2021/11/26 08:20:37;;;;;;;1999.90;999.90;;;;;;;4.31;99.11;163545.28;5005752;28;20111;-66
2021/11/26 08:23:05;;;;;;;1999.90;999.90;;;;;;;4.65;98.46;163635.81;5004418;28;20316;-66
2021/11/26 08:25:34;;;;;;;1999.90;999.90;;;;;;;4.84;97.76;163687.94;5004247;28;20054;-66
2021/11/26 08:28:01;;;;;;;1999.90;999.90;;;;;;;4.66;98.26;163639.94;5005380;28;20085;-66
2021/11/26 08:30:27;;;;;;;1999.90;999.90;;;;;;;4.70;99.08;163649.50;5003473;28;20085;-66
2021/11/26 08:32:54;;;;;;;1999.90;999.90;;;;;;;4.47;99.20;163589.19;5003232;28;20128;-66
2021/11/26 08:35:22;;;;;;;1999.90;999.90;;;;;;;4.68;99.42;163645.41;5002914;28;20104;-66
2021/11/26 08:37:49;;;;;;;1999.90;999.90;;;;;;;4.33;100.00;163550.75;5003199;28;20093;-66
2021/11/26 08:40:16;;;;;;;1999.90;999.90;;;;;;;4.40;100.00;163569.97;5003175;28;20262;-66
2021/11/26 08:42:43;;;;;;;1999.90;999.90;;;;;;;4.45;100.00;163583.72;5001267;28;20499;-67
2021/11/26 08:45:11;;;;;;;1999.90;999.90;;;;;;;4.17;100.00;163509.63;5003689;28;20529;-66
2021/11/26 08:47:40;;;;;;;1999.90;999.90;;;;;;;4.29;100.00;163539.78;5002424;28;20439;-66
2021/11/26 08:50:10;;;;;;;1999.90;999.90;;;;;;;4.43;100.00;163578.19;5003335;28;20368;-66
2021/11/26 08:52:37;;;;;;;1999.90;999.90;;;;;;;3.31;100.00;163279.34;5004759;28;20107;-66
2021/11/26 08:55:06;;;;;;;1999.90;999.90;;;;;;;3.63;100.00;163365.69;5002290;28;20092;-67
2021/11/26 08:57:34;;;;;;;1999.90;999.90;;;;;;;3.93;100.00;163443.81;5003435;28;20062;-67
2021/11/26 09:00:03;;;;;;;1999.90;999.90;;;;;;;4.40;100.00;163569.97;5004358;28;20375;-67
2021/11/26 09:02:29;;;;;;;1999.90;999.90;;;;;;;3.76;100.00;163399.94;5003440;28;20053;-67
2021/11/26 09:04:56;;;;;;;1999.90;999.90;;;;;;;3.43;100.00;163310.88;5004297;28;20050;-67
2021/11/26 09:07:22;;;;;;;1999.90;999.90;;;;;;;3.73;100.00;163391.72;5001317;28;20443;-66
2021/11/26 09:09:49;;;;;;;1999.90;999.90;;;;;;;3.86;100.00;163426.00;5003194;28;20422;-67
2021/11/26 09:12:16;;;;;;;1999.90;999.90;;;;;;;4.03;100.00;163471.22;5004607;28;20137;-67
2021/11/26 09:14:43;;;;;;;1999.90;999.90;;;;;;;3.79;100.00;163406.81;5002125;28;20111;-66
2021/11/26 09:17:09;;;;;;;1999.90;999.90;;;;;;;4.00;100.00;163463.00;5005020;28;20061;-67
2021/11/26 09:19:36;;;;;;;1999.90;999.90;;;;;;;3.69;100.00;163382.13;5002907;28;20061;-67
2021/11/26 09:22:02;;;;;;;1999.90;999.90;;;;;;;3.83;100.00;163419.13;5003884;28;20355;-67
2021/11/26 09:24:29;;;;;;;1999.90;999.90;;;;;;;3.74;100.00;163393.06;5004381;28;20804;-67
2021/11/26 09:26:56;;;;;;;1999.90;999.90;;;;;;;3.76;100.00;163399.94;5002254;28;20054;-68
2021/11/26 09:29:22;;;;;;;1999.90;999.90;;;;;;;3.83;100.00;163419.13;5004990;28;20077;-67
2021/11/26 09:31:49;;;;;;;1999.90;999.90;;;;;;;4.07;100.00;163482.22;5002990;28;20058;-67
2021/11/26 09:34:16;;;;;;;1999.90;999.90;;;;;;;4.07;99.53;163480.84;5003980;28;20049;-67
2021/11/26 09:36:42;;;;;;;1999.90;999.90;;;;;;;4.28;99.27;163537.06;5001404;28;20115;-66
2021/11/26 09:39:09;;;;;;;1999.90;999.90;;;;;;;4.34;98.55;163553.53;5001659;28;20151;-66
2021/11/26 09:41:35;;;;;;;1999.90;999.90;;;;;;;4.45;98.51;163582.31;5004815;28;20151;-69
2021/11/26 09:44:03;;;;;;;1999.90;999.90;;;;;;;4.53;97.54;163605.63;5001409;28;20073;-68
2021/11/26 09:46:35;;;;;;;1999.90;999.90;;;;;;;4.65;97.62;163635.81;5003149;28;20743;-67
2021/11/26 09:49:03;;;;;;;1999.90;999.90;;;;;;;4.70;97.47;163649.50;5004216;28;20049;-67
2021/11/26 09:51:30;;;;;;;1999.90;999.90;;;;;;;4.08;99.97;163484.97;5001132;28;20061;-66
2021/11/26 09:53:57;;;;;;;1999.90;999.90;;;;;;;4.31;98.89;163545.28;5002265;28;20053;-66
2021/11/26 09:56:24;;;;;;;1999.90;999.90;;;;;;;4.54;97.95;163606.97;5002669;28;20064;-66
2021/11/26 09:58:50;;;;;;;1999.90;999.90;;;;;;;4.72;97.30;163656.38;5000911;28;20488;-67
2021/11/26 10:01:17;;;;;;;1999.90;999.90;;;;;;;4.62;96.90;163627.59;5001477;28;20042;-67
2021/11/26 10:03:50;;;;;;;1999.90;999.90;;;;;;;4.79;96.79;163672.84;4999982;28;20061;-66
2021/11/26 10:06:19;;;;;;;1999.90;999.90;;;;;;;4.85;96.25;163689.31;5000992;28;20119;-67
2021/11/26 10:09:02;;;;;;;1999.90;999.90;;;;;;;4.92;96.11;163708.50;5001046;28;20081;-66
2021/11/26 10:11:31;;;;;;;1999.90;999.90;;;;;;;4.99;95.85;163726.31;5000743;28;20058;-67
2021/11/26 10:13:58;;;;;;;1999.90;999.90;;;;;;;5.01;95.65;163731.84;5003816;28;20085;-67
2021/11/26 10:16:54;;;;;;;1999.90;999.90;;;;;;;5.01;95.41;163733.19;4999718;28;20064;-67
2021/11/26 10:19:39;;;;;;;1999.90;999.90;;;;;;;5.15;94.86;163768.88;5001260;28;20078;-67
2021/11/26 10:22:26;;;;;;;1999.90;999.90;;;;;;;4.35;97.00;163557.63;5002251;28;20416;-67
2021/11/26 10:25:14;;;;;;;1999.90;999.90;;;;;;;4.57;97.50;163615.19;5000431;28;20096;-67
2021/11/26 10:27:41;;;;;;;1999.90;999.90;;;;;;;4.69;96.75;163646.75;5001198;28;20120;-67
2021/11/26 10:30:24;;;;;;;1999.90;999.90;;;;;;;4.41;97.59;163572.72;5001732;28;20108;-67
2021/11/26 10:33:18;;;;;;;1999.90;999.90;;;;;;;4.65;97.13;163637.19;5000051;28;21281;-68
2021/11/26 10:35:49;;;;;;;1999.90;999.90;;;;;;;4.57;96.92;163616.59;4999821;28;20061;-68
2021/11/26 10:38:21;;;;;;;1999.90;999.90;;;;;;;4.36;97.53;163558.97;5002836;28;20119;-68
2021/11/26 10:40:54;;;;;;;1999.90;999.90;;;;;;;4.19;98.92;163515.09;4999947;28;20406;-68
2021/11/26 10:59:37;;;;;;;1999.90;999.90;;;;;;;3.70;100.00;163384.84;5006120;28;20443;-67
2021/11/26 11:02:04;;;;;;;1999.90;999.90;;;;;;;3.87;100.00;163430.13;5006317;28;20065;-67
2021/11/26 11:04:31;;;;;;;1999.90;999.90;;;;;;;4.26;100.00;163531.53;5005543;28;20054;-68
2021/11/26 11:07:07;;;;;;;1999.90;999.90;;;;;;;3.69;100.00;163382.13;5006720;28;20399;-67
2021/11/26 11:09:46;;;;;;;1999.90;999.90;;;;;;;3.92;100.00;163441.09;5004618;28;20085;-68
2021/11/26 11:12:14;;;;;;;1999.90;999.90;;;;;;;4.01;100.00;163465.75;5005239;28;20364;-67